createdAt,value
2022-12-27T00:01:54.721Z,102289.16
2022-12-27T00:04:21.333Z,102287.97
2022-12-27T00:06:47.740Z,102286.53
2022-12-27T00:09:14.121Z,102281.75
2022-12-27T00:11:40.574Z,102294.72
2022-12-27T00:14:07.731Z,102284.13
2022-12-27T00:16:34.643Z,102280.47
2022-12-27T00:19:01.094Z,102273.22
2022-12-27T00:21:27.790Z,102273.53
2022-12-27T00:23:56.083Z,102272.88
2022-12-27T00:26:27.932Z,102278.16
2022-12-27T00:28:55.415Z,102284.28
2022-12-27T00:31:22.761Z,102290.69
2022-12-27T00:33:51.505Z,102289.22
2022-12-27T00:36:21.027Z,102286.56
2022-12-27T00:38:48.344Z,102289.06
2022-12-27T00:41:15.115Z,102287.22
2022-12-27T00:43:42.299Z,102291.88
2022-12-27T00:46:09.269Z,102290.88
2022-12-27T00:48:35.803Z,102295.16
2022-12-27T00:51:06.654Z,102301.38
2022-12-27T00:53:34.748Z,102304.31
2022-12-27T00:56:05.735Z,102302.66
2022-12-27T00:58:32.172Z,102301.03
2022-12-27T01:01:09.619Z,102304.97
2022-12-27T01:03:36.566Z,102302.63
2022-12-27T01:06:08.454Z,102304.41
2022-12-27T01:08:35.544Z,102313.22
2022-12-27T01:11:02.013Z,102315.00
2022-12-27T01:13:28.580Z,102338.03
2022-12-27T01:15:55.056Z,102331.66
2022-12-27T01:18:21.906Z,102344.00
2022-12-27T01:20:48.293Z,102346.75
2022-12-27T01:23:14.800Z,102355.59
2022-12-27T01:25:41.193Z,102342.81
2022-12-27T01:28:07.563Z,102335.91
2022-12-27T01:30:34.001Z,102340.72
2022-12-27T01:33:00.365Z,102352.69
2022-12-27T01:35:26.849Z,102357.69
2022-12-27T01:37:53.246Z,102361.34
2022-12-27T01:40:19.722Z,102359.69
2022-12-27T01:42:55.710Z,102368.28
2022-12-27T01:45:23.528Z,102381.84
2022-12-27T01:48:13.529Z,102389.59
2022-12-27T01:50:47.650Z,102397.53
2022-12-27T01:53:21.179Z,102390.41
2022-12-27T01:55:50.330Z,102378.47
2022-12-27T01:58:35.501Z,102368.31
2022-12-27T02:01:04.800Z,102376.91
2022-12-27T02:03:54.402Z,102383.50
2022-12-27T02:06:23.186Z,102383.97
2022-12-27T02:09:08.291Z,102391.75
2022-12-27T02:11:52.004Z,102380.94
2022-12-27T02:14:29.492Z,102392.19
2022-12-27T02:17:01.977Z,102391.19
2022-12-27T02:19:40.585Z,102383.91
2022-12-27T02:23:03.414Z,102377.75
2022-12-27T02:26:07.195Z,102378.59
2022-12-27T02:28:52.349Z,102390.19
2022-12-27T02:31:36.992Z,102384.25
2022-12-27T02:34:09.254Z,102395.84
2022-12-27T02:36:39.955Z,102407.56
2022-12-27T02:39:06.664Z,102414.31
2022-12-27T02:41:53.714Z,102418.59
2022-12-27T02:44:39.483Z,102429.06
2022-12-27T02:47:49.748Z,102423.75
2022-12-27T02:50:35.861Z,102421.16
2022-12-27T02:53:41.911Z,102423.91
2022-12-27T02:56:53.147Z,102425.91
2022-12-27T03:00:05.412Z,102430.00
2022-12-27T03:03:06.494Z,102432.84
2022-12-27T03:06:11.312Z,102431.38
2022-12-27T03:08:50.873Z,102423.34
2022-12-27T03:11:35.863Z,102419.19
2022-12-27T03:14:28.784Z,102428.34
2022-12-27T03:17:08.329Z,102412.97
2022-12-27T03:20:02.159Z,102421.38
2022-12-27T03:22:49.336Z,102413.13
2022-12-27T03:25:29.062Z,102416.31
2022-12-27T03:28:20.157Z,102418.31
2022-12-27T03:31:10.482Z,102424.47
2022-12-27T03:33:39.701Z,102425.66
2022-12-27T03:36:31.773Z,102431.28
2022-12-27T03:39:16.375Z,102442.44
2022-12-27T03:42:07.007Z,102434.81
2022-12-27T03:44:33.583Z,102428.22
2022-12-27T03:47:12.788Z,102431.72
2022-12-27T03:49:45.908Z,102432.88
2022-12-27T03:52:27.964Z,102440.81
2022-12-27T03:54:55.697Z,102437.16
2022-12-27T03:57:24.840Z,102441.31
2022-12-27T03:59:51.479Z,102442.97
2022-12-27T04:02:18.292Z,102446.72
2022-12-27T04:04:45.065Z,102451.00
2022-12-27T04:07:15.369Z,102455.47
2022-12-27T04:10:00.985Z,102457.78
2022-12-27T04:12:45.726Z,102451.84
2022-12-27T04:15:31.190Z,102446.53
2022-12-27T04:18:15.799Z,102451.00
2022-12-27T04:21:00.802Z,102453.81
2022-12-27T04:23:45.427Z,102444.53
2022-12-27T04:26:30.236Z,102449.84
2022-12-27T04:29:15.325Z,102452.13
2022-12-27T04:32:00.200Z,102466.19
2022-12-27T04:34:44.701Z,102463.53
2022-12-27T04:37:14.616Z,102470.16
2022-12-27T04:39:42.419Z,102472.94
2022-12-27T04:42:32.852Z,102473.47
2022-12-27T04:45:17.560Z,102472.03
2022-12-27T04:48:02.470Z,102477.00
2022-12-27T04:50:50.754Z,102467.28
2022-12-27T04:53:39.084Z,102461.19
2022-12-27T04:56:06.551Z,102459.06
2022-12-27T04:58:33.055Z,102459.41
2022-12-27T05:01:21.186Z,102461.41
2022-12-27T05:03:51.518Z,102464.06
2022-12-27T05:06:18.742Z,102472.00
2022-12-27T05:09:03.437Z,102460.06
2022-12-27T05:11:48.399Z,102471.31
2022-12-27T05:14:15.521Z,102468.47
2022-12-27T05:16:44.014Z,102475.09
2022-12-27T05:19:12.870Z,102472.25
2022-12-27T05:22:04.793Z,102486.31
2022-12-27T05:24:50.533Z,102490.50
2022-12-27T05:27:17.660Z,102478.41
2022-12-27T05:29:44.477Z,102483.91
2022-12-27T05:32:13.256Z,102492.00
2022-12-27T05:34:39.978Z,102491.53
2022-12-27T05:37:06.345Z,102502.13
2022-12-27T05:39:32.767Z,102504.75
2022-12-27T05:41:59.109Z,102512.72
2022-12-27T05:44:25.563Z,102506.41
2022-12-27T05:46:54.060Z,102500.47
2022-12-27T05:49:20.508Z,102516.34
2022-12-27T05:51:47.328Z,102512.91
2022-12-27T05:54:13.841Z,102519.66
2022-12-27T05:56:41.193Z,102510.53
2022-12-27T05:59:08.111Z,102516.66
2022-12-27T06:01:35.301Z,102518.31
2022-12-27T06:04:01.822Z,102521.63
2022-12-27T06:06:28.879Z,102520.78
2022-12-27T06:08:55.489Z,102522.63
2022-12-27T06:11:21.924Z,102523.09
2022-12-27T06:13:51.169Z,102520.78
2022-12-27T06:16:19.230Z,102530.09
2022-12-27T06:18:45.730Z,102531.09
2022-12-27T06:21:17.758Z,102533.88
2022-12-27T06:23:45.358Z,102535.72
2022-12-27T06:26:15.445Z,102532.41
2022-12-27T06:28:42.113Z,102530.94
2022-12-27T06:31:08.458Z,102534.22
2022-12-27T06:33:35.575Z,102536.72
2022-12-27T06:36:07.419Z,102538.91
2022-12-27T06:38:33.786Z,102537.06
2022-12-27T06:41:02.041Z,102550.28
2022-12-27T06:43:28.361Z,102547.66
2022-12-27T06:45:59.242Z,102558.91
2022-12-27T06:48:26.087Z,102558.41
2022-12-27T06:50:52.606Z,102560.22
2022-12-27T06:53:19.007Z,102565.84
2022-12-27T06:55:45.406Z,102563.22
2022-12-27T06:58:13.452Z,102566.69
2022-12-27T07:00:41.233Z,102570.00
2022-12-27T07:03:07.912Z,102575.44
2022-12-27T07:05:37.886Z,102570.94
2022-12-27T07:08:04.921Z,102569.47
2022-12-27T07:10:31.339Z,102570.00
2022-12-27T07:12:58.220Z,102562.59
2022-12-27T07:15:24.671Z,102567.56
2022-12-27T07:17:51.060Z,102566.09
2022-12-27T07:20:17.476Z,102570.53
2022-12-27T07:22:44.065Z,102573.69
2022-12-27T07:25:10.522Z,102573.38
2022-12-27T07:27:37.365Z,102584.94
2022-12-27T07:30:05.089Z,102574.19
2022-12-27T07:32:31.614Z,102579.47
2022-12-27T07:34:57.994Z,102580.97
2022-12-27T07:37:24.405Z,102578.66
2022-12-27T07:39:50.753Z,102587.78
2022-12-27T07:42:17.187Z,102588.41
2022-12-27T07:44:43.568Z,102586.94
2022-12-27T07:47:10.041Z,102589.25
2022-12-27T07:49:36.473Z,102597.00
2022-12-27T07:52:02.937Z,102608.59
2022-12-27T07:54:29.449Z,102610.41
2022-12-27T07:56:55.789Z,102620.34
2022-12-27T07:59:22.437Z,102616.03
2022-12-27T08:02:04.136Z,102625.81
2022-12-27T08:04:32.151Z,102627.47
2022-12-27T08:07:10.126Z,102629.59
2022-12-27T08:09:38.858Z,102630.94
2022-12-27T08:12:06.355Z,102633.72
2022-12-27T08:14:32.815Z,102639.81
2022-12-27T08:17:05.349Z,102636.19
2022-12-27T08:19:32.055Z,102636.38
2022-12-27T08:21:58.443Z,102632.53
2022-12-27T08:24:25.086Z,102632.72
2022-12-27T08:26:51.500Z,102638.19
2022-12-27T08:29:17.876Z,102639.34
2022-12-27T08:31:44.297Z,102637.19
2022-12-27T08:34:10.686Z,102641.78
2022-12-27T08:36:54.718Z,102648.56
2022-12-27T08:39:21.768Z,102640.44
2022-12-27T08:41:48.143Z,102636.63
2022-12-27T08:44:14.487Z,102628.34
2022-12-27T08:46:41.093Z,102639.59
2022-12-27T08:49:07.617Z,102638.25
2022-12-27T08:51:40.855Z,102644.50
2022-12-27T08:54:07.893Z,102633.06
2022-12-27T08:56:34.276Z,102638.31
2022-12-27T08:59:00.712Z,102644.25
2022-12-27T09:01:27.442Z,102636.44
2022-12-27T09:03:54.029Z,102633.94
2022-12-27T09:06:23.130Z,102632.47
2022-12-27T09:08:50.876Z,102632.47
2022-12-27T09:11:23.537Z,102634.28
2022-12-27T09:13:50.370Z,102640.41
2022-12-27T09:16:20.426Z,102642.88
2022-12-27T09:18:50.035Z,102654.59
2022-12-27T09:21:18.014Z,102658.56
2022-12-27T09:23:45.727Z,102659.88
2022-12-27T09:26:18.016Z,102651.41
2022-12-27T09:28:45.259Z,102654.34
2022-12-27T09:31:12.626Z,102649.19
2022-12-27T09:33:39.654Z,102652.94
2022-12-27T09:36:11.430Z,102649.75
2022-12-27T09:38:38.353Z,102655.34
2022-12-27T09:41:59.037Z,102657.31
2022-12-27T09:44:41.292Z,102657.78
2022-12-27T09:47:23.670Z,102666.50
2022-12-27T09:49:58.278Z,102666.59
2022-12-27T09:52:35.005Z,102668.53
2022-12-27T09:55:21.870Z,102667.03
2022-12-27T09:57:48.470Z,102666.28
2022-12-27T10:00:34.874Z,102671.91
2022-12-27T10:03:05.730Z,102669.88
2022-12-27T10:05:35.077Z,102663.19
2022-12-27T10:08:42.204Z,102672.28
2022-12-27T10:11:31.535Z,102672.56
2022-12-27T10:14:05.917Z,102672.22
2022-12-27T10:16:57.706Z,102661.50
2022-12-27T10:19:51.293Z,102662.78
2022-12-27T10:22:36.232Z,102668.19
2022-12-27T10:25:12.712Z,102671.84
2022-12-27T10:27:39.984Z,102679.72
2022-12-27T10:30:14.526Z,102685.09
2022-12-27T10:32:40.884Z,102677.63
2022-12-27T10:35:07.809Z,102676.97
2022-12-27T10:37:34.308Z,102672.59
2022-12-27T10:40:10.144Z,102669.28
2022-12-27T10:42:44.203Z,102676.16
2022-12-27T10:45:26.752Z,102670.56
2022-12-27T10:47:55.981Z,102674.22
2022-12-27T10:50:24.861Z,102675.34
2022-12-27T10:52:57.308Z,102673.59
2022-12-27T10:55:38.453Z,102680.75
2022-12-27T10:58:21.379Z,102673.59
2022-12-27T11:00:56.580Z,102680.38
2022-12-27T11:03:23.287Z,102682.41
2022-12-27T11:06:02.148Z,102676.63
2022-12-27T11:08:29.760Z,102667.63
2022-12-27T11:11:13.063Z,102667.63
2022-12-27T11:13:39.634Z,102662.16
2022-12-27T11:16:11.669Z,102656.28
2022-12-27T11:18:49.073Z,102648.84
2022-12-27T11:21:25.605Z,102646.81
2022-12-27T11:23:58.414Z,102646.66
2022-12-27T11:26:29.558Z,102644.41
2022-12-27T11:28:59.959Z,102640.31
2022-12-27T11:31:29.413Z,102646.19
2022-12-27T11:33:59.066Z,102641.97
2022-12-27T11:36:41.911Z,102640.66
2022-12-27T11:39:14.142Z,102650.59
2022-12-27T11:41:49.615Z,102639.13
2022-12-27T11:44:32.452Z,102638.13
2022-12-27T11:47:26.247Z,102633.34
2022-12-27T11:49:59.182Z,102631.75
2022-12-27T11:52:59.653Z,102633.19
2022-12-27T11:55:28.973Z,102628.69
2022-12-27T11:58:23.529Z,102627.56
2022-12-27T12:01:05.660Z,102639.63
2022-12-27T12:04:03.730Z,102643.94
2022-12-27T12:06:35.946Z,102639.22
2022-12-27T12:09:11.439Z,102625.94
2022-12-27T12:11:37.776Z,102627.13
2022-12-27T12:14:29.022Z,102621.00
2022-12-27T12:17:08.099Z,102615.06
2022-12-27T12:19:53.065Z,102617.31
2022-12-27T12:22:25.580Z,102604.97
2022-12-27T12:25:02.113Z,102598.63
2022-12-27T12:27:54.052Z,102595.97
2022-12-27T12:30:27.269Z,102585.31
2022-12-27T12:32:59.825Z,102597.03
2022-12-27T12:35:53.874Z,102587.59
2022-12-27T12:38:38.139Z,102584.97
2022-12-27T12:41:35.159Z,102580.13
2022-12-27T12:44:13.521Z,102578.50
2022-12-27T12:46:57.220Z,102569.28
2022-12-27T12:49:45.046Z,102574.63
2022-12-27T12:52:17.768Z,102560.66
2022-12-27T12:54:59.507Z,102566.84
2022-12-27T12:57:35.006Z,102562.28
2022-12-27T13:00:12.476Z,102548.34
2022-12-27T13:03:12.500Z,102542.59
2022-12-27T13:05:41.631Z,102538.91
2022-12-27T13:08:20.796Z,102531.53
2022-12-27T13:11:12.207Z,102534.41
2022-12-27T13:14:01.278Z,102523.16
2022-12-27T13:16:49.309Z,102517.63
2022-12-27T13:19:24.606Z,102513.31
2022-12-27T13:22:16.943Z,102503.25
2022-12-27T13:25:10.572Z,102495.03
2022-12-27T13:27:58.218Z,102507.16
2022-12-27T13:30:34.113Z,102499.97
2022-12-27T13:33:28.975Z,102499.16
2022-12-27T13:36:04.941Z,102496.28
2022-12-27T13:38:50.618Z,102501.00
2022-12-27T13:41:41.090Z,102493.22
2022-12-27T13:44:45.972Z,102484.41
2022-12-27T13:47:12.474Z,102471.72
2022-12-27T13:49:49.454Z,102480.13
2022-12-27T13:52:40.127Z,102485.06
2022-12-27T13:55:21.141Z,102456.38
2022-12-27T13:58:11.094Z,102463.34
2022-12-27T14:00:56.580Z,102454.72
2022-12-27T14:03:53.488Z,102453.09
2022-12-27T14:06:53.747Z,102453.50
2022-12-27T14:09:36.091Z,102449.16
2022-12-27T14:12:47.738Z,102431.75
2022-12-27T14:15:22.093Z,102440.75
2022-12-27T14:18:25.071Z,102425.38
2022-12-27T14:21:10.324Z,102436.44
2022-12-27T14:24:13.722Z,102444.84
2022-12-27T14:26:59.290Z,102441.34
2022-12-27T14:29:31.746Z,102439.91
2022-12-27T14:33:02.185Z,102466.94
2022-12-27T14:35:34.367Z,102444.59
2022-12-27T14:38:20.436Z,102436.81
2022-12-27T14:41:05.637Z,102426.56
2022-12-27T14:43:54.100Z,102430.03
2022-12-27T14:46:43.391Z,102436.38
2022-12-27T14:49:51.067Z,102434.72
2022-12-27T14:52:20.318Z,102437.59
2022-12-27T14:55:10.536Z,102435.97
2022-12-27T14:57:48.615Z,102423.88
2022-12-27T15:00:19.874Z,102435.56
2022-12-27T15:03:21.263Z,102429.59
2022-12-27T15:06:04.060Z,102415.47
2022-12-27T15:08:52.589Z,102415.00
2022-12-27T15:11:27.770Z,102394.13
2022-12-27T15:14:24.791Z,102411.28
2022-12-27T15:17:22.855Z,102410.50
2022-12-27T15:20:09.842Z,102409.25
2022-12-27T15:22:48.279Z,102411.47
2022-12-27T15:25:29.802Z,102405.75
2022-12-27T15:28:28.784Z,102401.44
2022-12-27T15:31:03.737Z,102412.47
2022-12-27T15:33:37.974Z,102418.59
2022-12-27T15:36:43.965Z,102418.81
2022-12-27T15:39:38.264Z,102414.50
2022-12-27T15:42:48.798Z,102420.03
2022-12-27T15:45:42.591Z,102421.84
2022-12-27T15:48:37.713Z,102414.91
2022-12-27T15:51:28.035Z,102406.09
2022-12-27T15:54:15.743Z,102397.50
2022-12-27T15:57:13.493Z,102398.31
2022-12-27T15:59:47.277Z,102390.72
2022-12-27T16:02:44.103Z,102392.56
2022-12-27T16:05:19.645Z,102393.56
2022-12-27T16:07:51.431Z,102398.09
2022-12-27T16:10:29.949Z,102398.09
2022-12-27T16:13:11.614Z,102388.25
2022-12-27T16:15:51.002Z,102392.78
2022-12-27T16:18:23.658Z,102394.41
2022-12-27T16:21:26.347Z,102390.72
2022-12-27T16:24:03.631Z,102392.56
2022-12-27T16:26:35.600Z,102401.16
2022-12-27T16:29:13.594Z,102394.63
2022-12-27T16:31:45.729Z,102390.94
2022-12-27T16:34:27.686Z,102389.13
2022-12-27T16:36:57.214Z,102390.75
2022-12-27T16:39:45.205Z,102385.22
2022-12-27T16:42:12.210Z,102386.88
2022-12-27T16:44:57.416Z,102393.63
2022-12-27T16:48:05.263Z,102392.81
2022-12-27T16:50:45.559Z,102390.78
2022-12-27T16:53:24.199Z,102388.75
2022-12-27T16:56:16.401Z,102385.06
2022-12-27T16:58:43.028Z,102386.69
2022-12-27T17:01:18.205Z,102376.03
2022-12-27T17:03:47.318Z,102370.72
2022-12-27T17:06:35.358Z,102360.69
2022-12-27T17:09:07.961Z,102353.16
2022-12-27T17:12:05.491Z,102351.53
2022-12-27T17:14:35.866Z,102337.38
2022-12-27T17:17:23.560Z,102331.88
2022-12-27T17:19:56.148Z,102324.91
2022-12-27T17:22:27.383Z,102324.47
2022-12-27T17:24:59.338Z,102323.66
2022-12-27T17:27:53.504Z,102316.69
2022-12-27T17:30:26.430Z,102309.72
2022-12-27T17:33:18.862Z,102309.50
2022-12-27T17:36:03.840Z,102307.06
2022-12-27T17:38:46.766Z,102308.91
2022-12-27T17:41:39.101Z,102297.25
2022-12-27T17:44:39.217Z,102296.00
2022-12-27T17:47:15.456Z,102292.34
2022-12-27T17:49:43.202Z,102298.06
2022-12-27T17:52:35.196Z,102297.84
2022-12-27T17:55:37.368Z,102287.03
2022-12-27T17:58:08.069Z,102297.06
2022-12-27T18:00:41.212Z,102300.75
2022-12-27T18:03:10.046Z,102282.72
2022-12-27T18:05:41.446Z,102282.50
2022-12-27T18:08:17.499Z,102276.97
2022-12-27T18:10:44.140Z,102282.28
2022-12-27T18:13:18.205Z,102282.47
2022-12-27T18:15:47.005Z,102282.88
2022-12-27T18:18:23.537Z,102271.81
2022-12-27T18:20:59.618Z,102260.56
2022-12-27T18:23:26.676Z,102263.44
2022-12-27T18:26:02.747Z,102266.47
2022-12-27T18:28:34.489Z,102258.09
2022-12-27T18:31:19.722Z,102253.81
2022-12-27T18:33:51.544Z,102254.00
2022-12-27T18:36:31.612Z,102244.41
2022-12-27T18:39:02.412Z,102245.59
2022-12-27T18:41:37.389Z,102227.19
2022-12-27T18:44:04.338Z,102229.22
2022-12-27T18:46:37.398Z,102218.78
2022-12-27T18:49:04.545Z,102213.06
2022-12-27T18:51:37.163Z,102215.09
2022-12-27T18:54:33.780Z,102206.91
2022-12-27T18:57:02.929Z,102199.31
2022-12-27T18:59:32.386Z,102198.50
2022-12-27T19:02:01.862Z,102201.78
2022-12-27T19:04:33.114Z,102203.59
2022-12-27T19:07:12.862Z,102191.31
2022-12-27T19:09:43.146Z,102198.72
2022-12-27T19:12:29.496Z,102197.06
2022-12-27T19:14:56.021Z,102190.28
2022-12-27T19:17:25.048Z,102198.69
2022-12-27T19:19:54.743Z,102181.50
2022-12-27T19:22:41.206Z,102184.38
2022-12-27T19:25:21.890Z,102181.88
2022-12-27T19:27:58.706Z,102181.06
2022-12-27T19:30:46.238Z,102174.91
2022-12-27T19:33:24.443Z,102169.97
2022-12-27T19:35:51.120Z,102164.06
2022-12-27T19:38:23.770Z,102165.91
2022-12-27T19:40:58.071Z,102159.34
2022-12-27T19:43:38.148Z,102159.78
2022-12-27T19:46:04.808Z,102142.19
2022-12-27T19:48:31.237Z,102149.13
2022-12-27T19:50:58.212Z,102140.16
2022-12-27T19:53:31.081Z,102136.47
2022-12-27T19:55:58.281Z,102140.34
2022-12-27T19:58:26.976Z,102143.84
2022-12-27T20:00:53.978Z,102127.69
2022-12-27T20:03:20.529Z,102120.09
2022-12-27T20:06:13.693Z,102124.59
2022-12-27T20:08:40.197Z,102122.56
2022-12-27T20:11:11.471Z,102107.63
2022-12-27T20:13:37.882Z,102111.72
2022-12-27T20:16:04.613Z,102102.72
2022-12-27T20:18:31.064Z,102099.25
2022-12-27T20:20:57.925Z,102092.50
2022-12-27T20:23:24.508Z,102094.97
2022-12-27T20:25:51.290Z,102092.91
2022-12-27T20:28:18.845Z,102089.22
2022-12-27T20:30:47.012Z,102091.09
2022-12-27T20:33:14.145Z,102080.84
2022-12-27T20:35:41.235Z,102072.25
2022-12-27T20:38:09.040Z,102074.28
2022-12-27T20:40:35.445Z,102077.78
2022-12-27T20:43:01.854Z,102078.00
2022-12-27T20:45:28.277Z,102062.44
2022-12-27T20:47:54.750Z,102065.72
2022-12-27T20:50:21.197Z,102063.47
2022-12-27T20:52:47.647Z,102073.09
2022-12-27T20:55:14.064Z,102058.78
2022-12-27T20:57:42.466Z,102066.31
2022-12-27T21:00:10.569Z,102065.50
2022-12-27T21:02:39.607Z,102055.91
2022-12-27T21:05:07.316Z,102044.25
2022-12-27T21:07:34.023Z,102029.91
2022-12-27T21:10:00.431Z,102053.84
2022-12-27T21:12:26.953Z,102049.34
2022-12-27T21:14:53.458Z,102045.88
2022-12-27T21:17:19.813Z,102034.22
2022-12-27T21:19:46.253Z,102034.63
2022-12-27T21:22:12.712Z,102031.16
2022-12-27T21:24:39.112Z,102025.00
2022-12-27T21:27:05.583Z,102029.31
2022-12-27T21:29:32.387Z,102024.78
2022-12-27T21:31:58.827Z,102024.38
2022-12-27T21:34:26.796Z,102018.25
2022-12-27T21:36:53.427Z,102020.31
2022-12-27T21:39:19.986Z,102014.78
2022-12-27T21:41:46.445Z,102008.66
2022-12-27T21:44:12.785Z,101993.72
2022-12-27T21:46:41.477Z,102000.66
2022-12-27T21:49:10.868Z,101998.63
2022-12-27T21:51:38.134Z,101987.16
2022-12-27T21:54:04.787Z,101988.59
2022-12-27T21:56:31.333Z,101980.63
2022-12-27T21:59:02.914Z,101969.56
2022-12-27T22:01:31.121Z,101973.25
2022-12-27T22:04:17.496Z,101968.75
2022-12-27T22:06:47.139Z,101972.03
2022-12-27T22:09:14.512Z,101965.06
2022-12-27T22:11:41.008Z,101957.91
2022-12-27T22:14:07.694Z,101946.66
2022-12-27T22:16:36.764Z,101947.88
2022-12-27T22:19:06.570Z,101946.47
2022-12-27T22:21:35.008Z,101944.81
2022-12-27T22:24:02.651Z,101930.28
2022-12-27T22:26:33.459Z,101936.44
2022-12-27T22:29:00.132Z,101936.63
2022-12-27T22:31:32.684Z,101925.38
2022-12-27T22:33:59.112Z,101924.16
2022-12-27T22:36:27.080Z,101914.16
2022-12-27T22:38:58.525Z,101910.88
2022-12-27T22:41:27.949Z,101903.94
2022-12-27T22:44:00.013Z,101916.84
2022-12-27T22:46:28.393Z,101906.38
2022-12-27T22:48:58.393Z,101911.09
2022-12-27T22:51:27.713Z,101908.03
2022-12-27T22:53:56.147Z,101894.97
2022-12-27T22:56:28.409Z,101897.81
2022-12-27T22:58:55.513Z,101904.97
2022-12-27T23:01:23.408Z,101873.47
2022-12-27T23:03:50.381Z,101865.72
2022-12-27T23:06:17.545Z,101856.53
2022-12-27T23:08:44.898Z,101846.09
2022-12-27T23:11:20.494Z,101842.00
2022-12-27T23:13:48.254Z,101845.91
2022-12-27T23:16:15.139Z,101833.44
2022-12-27T23:18:41.845Z,101828.31
2022-12-27T23:21:21.332Z,101824.03
2022-12-27T23:23:51.712Z,101819.53
2022-12-27T23:26:21.350Z,101805.44
2022-12-27T23:28:48.813Z,101815.25
2022-12-27T23:31:16.160Z,101804.63
2022-12-27T23:33:43.753Z,101794.78
2022-12-27T23:36:11.596Z,101790.50
2022-12-27T23:38:38.284Z,101795.00
2022-12-27T23:41:07.049Z,101792.13
2022-12-27T23:43:55.797Z,101786.03
2022-12-27T23:46:28.795Z,101786.22
2022-12-27T23:48:57.172Z,101784.56
2022-12-27T23:51:24.288Z,101770.47
2022-12-27T23:53:51.179Z,101768.06
2022-12-27T23:56:18.974Z,101749.44
2022-12-27T23:58:46.386Z,101754.75
